createdAt,value
2019-05-02T00:01:20.914Z,12.80
2019-05-02T00:03:47.302Z,12.80
2019-05-02T00:06:13.685Z,12.70
2019-05-02T00:08:40.624Z,12.70
2019-05-02T00:11:08.530Z,12.60
2019-05-02T00:13:34.890Z,12.60
2019-05-02T00:16:01.378Z,12.60
2019-05-02T00:18:31.958Z,12.50
2019-05-02T00:20:57.020Z,12.50
2019-05-02T00:23:27.953Z,12.40
2019-05-02T00:25:54.390Z,12.40
2019-05-02T00:28:20.927Z,12.40
2019-05-02T00:30:47.939Z,12.40
2019-05-02T00:33:14.505Z,12.30
2019-05-02T00:35:46.051Z,12.20
2019-05-02T00:38:09.686Z,12.20
2019-05-02T00:40:35.951Z,12.20
2019-05-02T00:43:02.634Z,12.20
2019-05-02T00:45:29.395Z,12.10
2019-05-02T00:47:57.603Z,12.10
2019-05-02T00:50:24.665Z,12.10
2019-05-02T00:52:51.362Z,12.00
2019-05-02T00:55:17.759Z,12.00
2019-05-02T00:57:44.059Z,11.90
2019-05-02T01:00:13.279Z,11.90
2019-05-02T01:02:44.879Z,11.90
2019-05-02T01:05:12.677Z,11.80
2019-05-02T01:07:39.163Z,11.80
2019-05-02T01:10:06.187Z,11.70
2019-05-02T01:12:32.688Z,11.70
2019-05-02T01:15:03.444Z,11.70
2019-05-02T01:17:31.001Z,11.60
2019-05-02T01:19:55.759Z,11.60
2019-05-02T01:22:22.047Z,11.60
2019-05-02T01:24:48.449Z,11.60
2019-05-02T01:27:17.103Z,11.50
2019-05-02T01:30:01.460Z,11.50
2019-05-02T01:32:30.126Z,11.50
2019-05-02T01:34:57.691Z,11.40
2019-05-02T01:37:32.143Z,11.40
2019-05-02T01:39:58.759Z,11.30
2019-05-02T01:42:25.027Z,11.30
2019-05-02T01:44:52.414Z,11.30
2019-05-02T01:47:18.699Z,11.30
2019-05-02T01:49:44.990Z,11.20
2019-05-02T01:52:11.254Z,11.20
2019-05-02T01:54:40.795Z,11.10
2019-05-02T01:57:08.745Z,11.20
2019-05-02T01:59:35.124Z,11.10
2019-05-02T02:02:01.630Z,11.10
2019-05-02T02:04:29.234Z,11.10
2019-05-02T02:06:55.863Z,11.00
2019-05-02T02:09:22.171Z,11.00
2019-05-02T02:11:48.546Z,11.00
2019-05-02T02:14:18.388Z,10.90
2019-05-02T02:16:43.454Z,10.90
2019-05-02T02:19:17.939Z,10.90
2019-05-02T02:21:52.331Z,10.90
2019-05-02T02:24:25.107Z,10.80
2019-05-02T02:26:49.933Z,10.70
2019-05-02T02:29:16.522Z,10.70
2019-05-02T02:31:46.846Z,10.70
2019-05-02T02:34:11.335Z,10.70
2019-05-02T02:36:38.090Z,10.70
2019-05-02T02:39:06.840Z,10.70
2019-05-02T02:41:34.946Z,10.70
2019-05-02T02:44:20.162Z,10.70
2019-05-02T02:46:48.264Z,10.70
2019-05-02T02:49:21.284Z,10.70
2019-05-02T02:51:43.430Z,10.70
2019-05-02T02:54:11.116Z,10.80
2019-05-02T02:56:40.759Z,10.80
2019-05-02T02:59:06.211Z,10.80
2019-05-02T03:01:32.611Z,10.90
2019-05-02T03:04:01.998Z,10.90
2019-05-02T03:06:27.800Z,11.00
2019-05-02T03:08:54.355Z,11.00
2019-05-02T03:11:25.031Z,11.00
2019-05-02T03:13:54.172Z,11.00
2019-05-02T03:16:23.321Z,11.00
2019-05-02T03:18:49.803Z,11.00
2019-05-02T03:21:20.423Z,11.10
2019-05-02T03:23:44.676Z,11.10
2019-05-02T03:26:14.783Z,11.10
2019-05-02T03:28:40.076Z,11.10
2019-05-02T03:31:21.068Z,11.10
2019-05-02T03:33:52.178Z,11.10
2019-05-02T03:36:03.561Z,11.20
2019-05-02T03:38:32.328Z,11.20
2019-05-02T03:40:59.023Z,11.20
2019-05-02T03:43:27.732Z,11.20
2019-05-02T03:45:54.391Z,11.20
2019-05-02T03:48:25.686Z,11.20
2019-05-02T03:50:49.856Z,11.20
2019-05-02T03:53:17.682Z,11.30
2019-05-02T03:55:45.404Z,11.30
2019-05-02T03:58:14.176Z,11.30
2019-05-02T04:00:40.535Z,11.30
2019-05-02T04:03:07.231Z,11.30
2019-05-02T04:05:39.662Z,11.40
2019-05-02T04:08:03.494Z,11.40
2019-05-02T04:10:52.930Z,11.40
2019-05-02T04:13:15.364Z,11.50
2019-05-02T04:15:44.186Z,11.50
2019-05-02T04:18:15.322Z,11.50
2019-05-02T04:20:43.695Z,11.50
2019-05-02T04:23:10.903Z,11.60
2019-05-02T04:25:37.832Z,11.60
2019-05-02T04:28:05.980Z,11.60
2019-05-02T04:30:33.442Z,11.60
2019-05-02T04:33:00.044Z,11.70
2019-05-02T04:35:28.720Z,11.70
2019-05-02T04:37:54.689Z,11.70
2019-05-02T04:40:21.080Z,11.70
2019-05-02T04:42:53.425Z,11.70
2019-05-02T04:45:26.375Z,11.70
2019-05-02T04:47:54.568Z,11.70
2019-05-02T04:50:17.823Z,11.70
2019-05-02T04:52:51.183Z,11.70
2019-05-02T04:55:19.899Z,11.70
2019-05-02T04:57:46.784Z,11.80
2019-05-02T05:00:11.623Z,11.80
2019-05-02T05:02:39.285Z,11.80
2019-05-02T05:05:05.374Z,11.80
2019-05-02T05:07:41.088Z,11.80
2019-05-02T05:10:03.123Z,11.90
2019-05-02T05:12:32.391Z,11.90
2019-05-02T05:14:57.834Z,11.90
2019-05-02T05:17:25.183Z,11.90
2019-05-02T05:19:52.583Z,12.00
2019-05-02T05:22:18.870Z,12.00
2019-05-02T05:25:02.302Z,12.00
2019-05-02T05:27:29.027Z,12.00
2019-05-02T05:30:02.261Z,12.10
2019-05-02T05:32:24.944Z,12.10
2019-05-02T05:34:51.710Z,12.10
2019-05-02T05:37:18.664Z,12.10
2019-05-02T05:39:50.895Z,12.10
2019-05-02T05:42:13.197Z,12.20
2019-05-02T05:44:39.908Z,12.20
2019-05-02T05:47:07.351Z,12.20
2019-05-02T05:49:33.854Z,12.20
2019-05-02T05:52:03.820Z,12.30
2019-05-02T05:54:33.144Z,12.30
2019-05-02T05:56:57.809Z,12.40
2019-05-02T05:59:28.284Z,12.40
2019-05-02T06:01:53.237Z,12.40
2019-05-02T06:04:23.652Z,12.40
2019-05-02T06:06:48.067Z,12.50
2019-05-02T06:09:14.901Z,12.50
2019-05-02T06:11:41.628Z,12.50
2019-05-02T06:14:07.926Z,12.60
2019-05-02T06:16:35.304Z,12.60
2019-05-02T06:19:03.283Z,12.60
2019-05-02T06:21:29.919Z,12.60
2019-05-02T06:23:56.510Z,12.70
2019-05-02T06:26:23.146Z,12.70
2019-05-02T06:28:49.448Z,12.80
2019-05-02T06:31:17.206Z,12.80
2019-05-02T06:33:43.823Z,12.80
2019-05-02T06:36:10.208Z,12.90
2019-05-02T06:38:36.898Z,12.90
2019-05-02T06:41:03.740Z,12.90
2019-05-02T06:43:29.999Z,13.00
2019-05-02T06:45:56.399Z,13.10
2019-05-02T06:48:22.965Z,13.10
2019-05-02T06:50:49.259Z,13.10
2019-05-02T06:53:16.011Z,13.20
2019-05-02T06:55:42.855Z,13.20
2019-05-02T06:58:09.224Z,13.30
2019-05-02T07:00:48.251Z,13.30
2019-05-02T07:03:05.083Z,13.40
2019-05-02T07:05:33.046Z,13.40
2019-05-02T07:07:59.669Z,13.40
2019-05-02T07:10:26.714Z,13.50
2019-05-02T07:13:09.807Z,13.50
2019-05-02T07:15:23.916Z,13.50
2019-05-02T07:17:50.810Z,13.60
2019-05-02T07:20:17.478Z,13.60
2019-05-02T07:22:45.745Z,13.60
2019-05-02T07:25:15.150Z,13.70
2019-05-02T07:27:41.451Z,13.70
2019-05-02T07:30:09.719Z,13.80
2019-05-02T07:32:36.456Z,13.80
2019-05-02T07:35:05.223Z,13.90
2019-05-02T07:37:31.991Z,14.00
2019-05-02T07:39:58.252Z,14.00
2019-05-02T07:42:24.639Z,14.10
2019-05-02T07:44:50.928Z,14.10
2019-05-02T07:47:17.619Z,14.10
2019-05-02T07:49:44.390Z,14.20
2019-05-02T07:52:10.887Z,14.20
2019-05-02T07:54:37.283Z,14.30
2019-05-02T07:57:03.883Z,14.30
2019-05-02T07:59:30.246Z,14.30
2019-05-02T08:01:56.547Z,14.40
2019-05-02T08:04:23.027Z,14.40
2019-05-02T08:06:49.702Z,14.40
2019-05-02T08:09:16.157Z,14.40
2019-05-02T08:11:42.899Z,14.40
2019-05-02T08:14:09.197Z,14.40
2019-05-02T08:16:35.823Z,14.50
2019-05-02T08:19:05.473Z,14.50
2019-05-02T08:21:32.495Z,14.50
2019-05-02T08:24:02.200Z,14.60
2019-05-02T08:26:29.387Z,14.60
2019-05-02T08:29:03.858Z,14.70
2019-05-02T08:31:30.420Z,14.70
2019-05-02T08:33:57.266Z,14.80
2019-05-02T08:36:23.532Z,14.90
2019-05-02T08:38:53.708Z,14.90
2019-05-02T08:41:20.055Z,15.00
2019-05-02T08:43:46.523Z,15.10
2019-05-02T08:46:14.433Z,15.10
2019-05-02T08:48:43.784Z,15.20
2019-05-02T08:51:10.656Z,15.20
2019-05-02T08:53:52.050Z,15.20
2019-05-02T08:56:21.283Z,15.20
2019-05-02T08:58:49.907Z,15.30
2019-05-02T09:01:15.474Z,15.30
2019-05-02T09:03:55.256Z,15.30
2019-05-02T09:06:32.709Z,15.30
2019-05-02T09:08:59.118Z,15.20
2019-05-02T09:11:25.392Z,15.30
2019-05-02T09:13:52.644Z,15.40
2019-05-02T09:16:28.538Z,15.50
2019-05-02T09:18:54.775Z,15.60
2019-05-02T09:21:22.042Z,16.00
2019-05-02T09:23:48.471Z,16.20
2019-05-02T09:26:14.938Z,16.60
2019-05-02T09:28:42.270Z,16.80
2019-05-02T09:31:09.016Z,17.00
2019-05-02T09:33:41.141Z,17.20
2019-05-02T09:36:04.882Z,17.50
2019-05-02T09:38:32.904Z,17.80
2019-05-02T09:41:13.830Z,18.20
2019-05-02T09:43:29.394Z,18.70
2019-05-02T09:45:57.379Z,19.10
2019-05-02T09:48:26.820Z,19.60
2019-05-02T09:50:52.841Z,19.90
2019-05-02T09:53:20.610Z,20.20
2019-05-02T09:55:50.267Z,20.40
2019-05-02T09:58:21.048Z,20.60
2019-05-02T10:01:02.022Z,20.70
2019-05-02T10:03:31.887Z,20.80
2019-05-02T10:05:58.534Z,21.00
2019-05-02T10:08:25.013Z,21.10
2019-05-02T10:10:52.233Z,21.30
2019-05-02T10:13:18.697Z,21.60
2019-05-02T10:15:45.891Z,21.80
2019-05-02T10:18:14.593Z,22.10
2019-05-02T10:20:41.951Z,22.60
2019-05-02T10:23:12.022Z,23.10
2019-05-02T10:25:38.835Z,23.80
2019-05-02T10:28:06.145Z,24.40
2019-05-02T10:30:36.004Z,25.10
2019-05-02T10:33:03.193Z,25.70
2019-05-02T10:35:38.876Z,26.20
2019-05-02T10:37:59.896Z,26.60
2019-05-02T10:40:26.306Z,26.80
2019-05-02T10:42:52.803Z,27.00
2019-05-02T10:45:19.590Z,26.90
2019-05-02T10:47:45.849Z,26.90
2019-05-02T10:50:27.201Z,27.00
2019-05-02T10:52:53.578Z,27.10
2019-05-02T10:55:22.268Z,27.20
2019-05-02T10:57:48.886Z,27.30
2019-05-02T11:00:18.050Z,27.20
2019-05-02T11:02:52.556Z,27.30
2019-05-02T11:05:24.705Z,27.30
2019-05-02T11:07:49.337Z,27.30
2019-05-02T11:10:16.287Z,27.20
2019-05-02T11:12:46.932Z,27.30
2019-05-02T11:15:26.731Z,27.30
2019-05-02T11:17:52.936Z,27.20
2019-05-02T11:20:19.476Z,27.20
2019-05-02T11:22:45.845Z,27.20
2019-05-02T11:25:12.476Z,27.20
2019-05-02T11:27:39.135Z,27.30
2019-05-02T11:30:07.283Z,27.30
2019-05-02T11:32:33.819Z,27.20
2019-05-02T11:35:00.115Z,27.10
2019-05-02T11:37:26.638Z,27.00
2019-05-02T11:39:59.358Z,26.90
2019-05-02T11:42:23.312Z,27.00
2019-05-02T11:44:52.276Z,27.10
2019-05-02T11:47:24.935Z,27.30
2019-05-02T11:49:51.244Z,27.40
2019-05-02T11:52:15.162Z,27.50
2019-05-02T11:54:44.681Z,27.60
2019-05-02T11:57:11.502Z,27.70
2019-05-02T11:59:37.827Z,27.80
2019-05-02T12:02:19.068Z,27.90
2019-05-02T12:04:47.400Z,28.00
2019-05-02T12:07:14.786Z,27.90
2019-05-02T12:09:44.260Z,27.80
2019-05-02T12:12:09.559Z,27.70
2019-05-02T12:14:36.531Z,27.60
2019-05-02T12:17:03.435Z,27.50
2019-05-02T12:19:32.119Z,27.50
2019-05-02T12:21:58.435Z,27.40
2019-05-02T12:24:24.804Z,27.30
2019-05-02T12:26:52.870Z,27.30
2019-05-02T12:29:34.600Z,27.20
2019-05-02T12:32:11.990Z,27.20
2019-05-02T12:34:38.705Z,27.20
2019-05-02T12:37:04.999Z,27.30
2019-05-02T12:39:31.733Z,27.30
2019-05-02T12:41:58.458Z,27.30
2019-05-02T12:44:25.071Z,27.30
2019-05-02T12:46:51.897Z,27.40
2019-05-02T12:49:25.378Z,27.40
2019-05-02T12:51:48.043Z,27.40
2019-05-02T12:54:14.330Z,27.40
2019-05-02T12:56:41.856Z,27.50
2019-05-02T12:59:08.747Z,27.50
2019-05-02T13:01:35.302Z,27.60
2019-05-02T13:04:03.802Z,27.70
2019-05-02T13:06:30.373Z,27.70
2019-05-02T13:08:58.572Z,27.70
2019-05-02T13:11:42.155Z,27.80
2019-05-02T13:14:16.930Z,27.90
2019-05-02T13:16:38.435Z,27.90
2019-05-02T13:19:06.285Z,27.90
2019-05-02T13:21:45.000Z,27.90
2019-05-02T13:24:29.170Z,27.80
2019-05-02T13:26:59.329Z,27.80
2019-05-02T13:29:22.583Z,27.80
2019-05-02T13:31:53.979Z,27.80
2019-05-02T13:34:22.521Z,27.80
2019-05-02T13:36:51.923Z,27.80
2019-05-02T13:39:23.595Z,27.80
2019-05-02T13:41:52.040Z,27.90
2019-05-02T13:44:23.560Z,27.90
2019-05-02T13:46:50.442Z,27.90
2019-05-02T13:49:16.844Z,28.00
2019-05-02T13:51:43.346Z,28.00
2019-05-02T13:54:09.722Z,28.00
2019-05-02T13:56:52.325Z,27.90
2019-05-02T13:59:18.584Z,27.80
2019-05-02T14:01:48.076Z,27.70
2019-05-02T14:04:15.190Z,27.50
2019-05-02T14:06:42.155Z,27.30
2019-05-02T14:09:25.307Z,26.90
2019-05-02T14:12:05.753Z,26.60
2019-05-02T14:14:32.634Z,26.30
2019-05-02T14:16:59.266Z,25.90
2019-05-02T14:19:25.549Z,25.50
2019-05-02T14:21:52.179Z,25.20
2019-05-02T14:24:23.051Z,24.90
2019-05-02T14:26:52.392Z,24.70
2019-05-02T14:29:19.110Z,24.50
2019-05-02T14:31:45.515Z,24.40
2019-05-02T14:34:28.937Z,24.20
2019-05-02T14:36:59.216Z,24.10
2019-05-02T14:39:24.194Z,24.00
2019-05-02T14:41:52.449Z,23.90
2019-05-02T14:44:23.315Z,23.90
2019-05-02T14:46:47.598Z,23.90
2019-05-02T14:49:16.669Z,23.80
2019-05-02T14:51:44.654Z,23.70
2019-05-02T14:54:12.061Z,23.60
2019-05-02T14:56:43.363Z,23.50
2019-05-02T14:59:13.727Z,23.50
2019-05-02T15:01:37.660Z,23.40
2019-05-02T15:04:08.131Z,23.40
2019-05-02T15:06:33.770Z,23.50
2019-05-02T15:09:02.375Z,23.70
2019-05-02T15:11:32.717Z,23.90
2019-05-02T15:13:58.598Z,24.10
2019-05-02T15:16:39.031Z,24.40
2019-05-02T15:18:56.881Z,24.60
2019-05-02T15:21:22.856Z,24.80
2019-05-02T15:23:54.447Z,25.00
2019-05-02T15:26:19.095Z,25.10
2019-05-02T15:28:45.741Z,25.20
2019-05-02T15:31:28.497Z,25.20
2019-05-02T15:34:05.359Z,25.30
2019-05-02T15:36:32.359Z,25.20
2019-05-02T15:41:27.487Z,25.10
2019-05-02T15:43:53.788Z,25.10
2019-05-02T15:46:23.843Z,25.00
2019-05-02T15:48:48.252Z,24.90
2019-05-02T15:51:15.066Z,24.90
2019-05-02T15:54:03.061Z,24.80
2019-05-02T15:56:23.716Z,24.80
2019-05-02T15:58:48.580Z,24.70
2019-05-02T16:01:36.791Z,24.60
2019-05-02T16:04:04.752Z,24.40
2019-05-02T16:06:33.823Z,24.30
2019-05-02T16:08:59.503Z,24.30
2019-05-02T16:11:26.171Z,24.20
2019-05-02T16:13:55.649Z,24.20
2019-05-02T16:16:21.965Z,24.20
2019-05-02T16:18:49.535Z,24.10
2019-05-02T16:21:22.655Z,24.10
2019-05-02T16:24:11.175Z,24.20
2019-05-02T16:26:37.146Z,24.10
2019-05-02T16:29:02.929Z,24.00
2019-05-02T16:31:32.518Z,23.80
2019-05-02T16:34:02.336Z,23.60
2019-05-02T16:36:33.815Z,23.40
2019-05-02T16:38:57.358Z,23.20
2019-05-02T16:41:24.023Z,23.00
2019-05-02T16:43:51.838Z,22.80
2019-05-02T16:46:18.487Z,22.60
2019-05-02T16:48:44.759Z,22.50
2019-05-02T16:51:27.556Z,22.30
2019-05-02T16:53:39.572Z,22.20
2019-05-02T16:56:07.222Z,22.10
2019-05-02T16:58:45.974Z,21.90
2019-05-02T17:01:12.249Z,21.90
2019-05-02T17:03:39.182Z,21.70
2019-05-02T17:06:05.967Z,21.60
2019-05-02T17:08:37.423Z,21.50
2019-05-02T17:11:06.047Z,21.40
2019-05-02T17:13:35.655Z,21.30
2019-05-02T17:16:06.937Z,21.20
2019-05-02T17:18:29.727Z,21.10
2019-05-02T17:20:57.012Z,21.00
2019-05-02T17:23:23.587Z,20.90
2019-05-02T17:25:49.980Z,20.80
2019-05-02T17:28:16.266Z,20.70
2019-05-02T17:30:43.131Z,20.60
2019-05-02T17:33:14.423Z,20.50
2019-05-02T17:35:57.800Z,20.40
2019-05-02T17:38:29.087Z,20.20
2019-05-02T17:40:54.363Z,19.90
2019-05-02T17:43:22.539Z,19.70
2019-05-02T17:45:48.948Z,19.40
2019-05-02T17:48:17.540Z,19.10
2019-05-02T17:50:54.337Z,18.90
2019-05-02T17:53:16.542Z,18.70
2019-05-02T17:55:44.408Z,18.50
2019-05-02T17:58:12.958Z,18.30
2019-05-02T18:00:47.510Z,18.20
2019-05-02T18:03:15.195Z,18.10
2019-05-02T18:05:41.885Z,17.90
2019-05-02T18:08:10.760Z,17.80
2019-05-02T18:10:37.199Z,17.70
2019-05-02T18:13:04.078Z,17.60
2019-05-02T18:15:34.791Z,17.50
2019-05-02T18:17:59.888Z,17.40
2019-05-02T18:20:27.438Z,17.20
2019-05-02T18:22:54.127Z,17.20
2019-05-02T18:25:21.636Z,17.10
2019-05-02T18:27:49.140Z,17.00
2019-05-02T18:30:22.847Z,16.90
2019-05-02T18:32:46.569Z,16.80
2019-05-02T18:35:13.299Z,16.80
2019-05-02T18:37:42.819Z,16.70
2019-05-02T18:40:08.362Z,16.60
2019-05-02T18:42:34.789Z,16.60
2019-05-02T18:45:05.231Z,16.60
2019-05-02T18:47:33.442Z,16.50
2019-05-02T18:50:04.378Z,16.40
2019-05-02T18:52:38.361Z,16.40
2019-05-02T18:54:58.774Z,16.40
2019-05-02T18:57:26.095Z,16.40
2019-05-02T18:59:56.454Z,16.30
2019-05-02T19:02:26.442Z,16.30
2019-05-02T19:04:51.653Z,16.20
2019-05-02T19:07:30.278Z,16.20
2019-05-02T19:09:50.991Z,16.10
2019-05-02T19:12:22.695Z,16.10
2019-05-02T19:14:43.229Z,16.10
2019-05-02T19:17:09.510Z,16.10
2019-05-02T19:19:36.943Z,16.10
2019-05-02T19:22:07.520Z,16.00
2019-05-02T19:24:34.877Z,16.00
2019-05-02T19:27:02.195Z,16.00
2019-05-02T19:29:31.648Z,15.90
2019-05-02T19:31:58.056Z,15.90
2019-05-02T19:34:26.833Z,15.90
2019-05-02T19:36:53.049Z,15.90
2019-05-02T19:39:19.645Z,15.80
2019-05-02T19:41:45.939Z,15.80
2019-05-02T19:44:15.110Z,15.80
2019-05-02T19:46:42.188Z,15.70
2019-05-02T19:49:12.438Z,15.70
2019-05-02T19:51:37.349Z,15.70
2019-05-02T19:54:06.958Z,15.60
2019-05-02T19:56:43.256Z,15.60
2019-05-02T19:59:02.686Z,15.60
2019-05-02T20:01:29.440Z,15.60
2019-05-02T20:03:56.751Z,15.60
2019-05-02T20:06:24.487Z,15.50
2019-05-02T20:08:52.535Z,15.50
2019-05-02T20:11:21.819Z,15.50
2019-05-02T20:13:47.919Z,15.50
2019-05-02T20:16:22.367Z,15.40
2019-05-02T20:18:48.610Z,15.40
2019-05-02T20:21:23.314Z,15.40
2019-05-02T20:23:45.542Z,15.40
2019-05-02T20:26:15.537Z,15.40
2019-05-02T20:28:42.150Z,15.30
2019-05-02T20:31:08.328Z,15.30
2019-05-02T20:33:34.686Z,15.30
2019-05-02T20:36:02.208Z,15.30
2019-05-02T20:38:28.573Z,15.30
2019-05-02T20:40:55.046Z,15.30
2019-05-02T20:43:22.605Z,15.20
2019-05-02T20:45:49.406Z,15.20
2019-05-02T20:48:15.903Z,15.20
2019-05-02T20:50:42.775Z,15.10
2019-05-02T20:53:12.019Z,15.10
2019-05-02T20:55:37.751Z,15.10
2019-05-02T20:58:04.522Z,15.10
2019-05-02T21:00:32.224Z,15.00
2019-05-02T21:02:58.895Z,15.00
2019-05-02T21:05:27.886Z,15.00
2019-05-02T21:08:02.166Z,15.00
2019-05-02T21:10:33.386Z,15.00
2019-05-02T21:13:01.951Z,14.90
2019-05-02T21:15:28.312Z,14.90
2019-05-02T21:17:54.803Z,14.90
2019-05-02T21:20:21.887Z,14.90
2019-05-02T21:22:48.728Z,14.90
2019-05-02T21:25:15.472Z,14.90
2019-05-02T21:27:41.980Z,14.90
2019-05-02T21:30:12.150Z,14.90
2019-05-02T21:32:38.711Z,14.90
2019-05-02T21:35:05.619Z,14.90
2019-05-02T21:37:32.051Z,14.90
2019-05-02T21:39:58.674Z,14.90
2019-05-02T21:42:25.042Z,14.90
2019-05-02T21:44:51.771Z,14.90
2019-05-02T21:47:18.369Z,14.90
2019-05-02T21:49:47.075Z,14.90
2019-05-02T21:52:32.143Z,14.90
2019-05-02T21:55:15.797Z,14.90
2019-05-02T21:58:02.698Z,14.90
2019-05-02T22:00:48.691Z,14.80
2019-05-02T22:03:15.375Z,14.80
2019-05-02T22:05:42.871Z,14.80
2019-05-02T22:08:09.438Z,14.80
2019-05-02T22:10:36.678Z,14.80
2019-05-02T22:13:03.149Z,14.70
2019-05-02T22:15:29.547Z,14.70
2019-05-02T22:17:55.837Z,14.70
2019-05-02T22:20:22.983Z,14.70
2019-05-02T22:22:49.375Z,14.70
2019-05-02T22:25:15.656Z,14.70
2019-05-02T22:27:42.218Z,14.70
2019-05-02T22:30:08.804Z,14.70
2019-05-02T22:32:35.070Z,14.70
2019-05-02T22:35:01.941Z,14.70
2019-05-02T22:37:28.331Z,14.70
2019-05-02T22:39:56.723Z,14.70
2019-05-02T22:42:23.191Z,14.70
2019-05-02T22:44:49.585Z,14.70
2019-05-02T22:47:15.858Z,14.70
2019-05-02T22:49:42.442Z,14.70
2019-05-02T22:52:08.962Z,14.60
2019-05-02T22:54:35.291Z,14.60
2019-05-02T22:57:02.548Z,14.60
2019-05-02T22:59:29.081Z,14.60
2019-05-02T23:01:56.438Z,14.60
2019-05-02T23:04:23.542Z,14.50
2019-05-02T23:06:52.731Z,14.50
2019-05-02T23:09:18.755Z,14.50
2019-05-02T23:11:45.142Z,14.40
2019-05-02T23:14:11.451Z,14.40
2019-05-02T23:16:38.003Z,14.40
2019-05-02T23:19:04.579Z,14.30
2019-05-02T23:21:32.593Z,14.30
2019-05-02T23:24:01.667Z,14.30
2019-05-02T23:26:47.238Z,14.20
2019-05-02T23:29:15.410Z,14.20
2019-05-02T23:31:42.288Z,14.10
2019-05-02T23:34:09.203Z,14.10
2019-05-02T23:36:35.844Z,14.00
2019-05-02T23:39:05.451Z,14.00
2019-05-02T23:41:32.916Z,13.90
2019-05-02T23:43:59.405Z,13.90
2019-05-02T23:46:25.818Z,13.80
2019-05-02T23:48:52.676Z,13.80
2019-05-02T23:51:19.203Z,13.70
2019-05-02T23:53:45.606Z,13.70
2019-05-02T23:56:13.145Z,13.60
2019-05-02T23:58:39.995Z,13.60
